createdAt,value
2018-12-18T00:00:31.570Z,5.59
2018-12-18T00:01:31.466Z,5.58
2018-12-18T00:02:31.443Z,5.59
2018-12-18T00:03:31.431Z,5.58
2018-12-18T00:04:31.421Z,5.66
2018-12-18T00:05:31.412Z,5.58
2018-12-18T00:06:31.419Z,5.52
2018-12-18T00:07:31.390Z,5.50
2018-12-18T00:08:31.383Z,5.54
2018-12-18T00:09:31.374Z,5.52
2018-12-18T00:10:31.361Z,5.50
2018-12-18T00:11:31.383Z,5.50
2018-12-18T00:12:31.349Z,5.52
2018-12-18T00:13:31.329Z,5.47
2018-12-18T00:14:31.324Z,5.44
2018-12-18T00:15:31.309Z,5.44
2018-12-18T00:16:31.298Z,5.40
2018-12-18T00:17:31.322Z,5.39
2018-12-18T00:18:31.275Z,5.43
2018-12-18T00:19:31.262Z,5.36
2018-12-18T00:20:31.281Z,5.39
2018-12-18T00:21:31.241Z,5.43
2018-12-18T00:22:31.256Z,5.37
2018-12-18T00:23:31.223Z,5.41
2018-12-18T00:24:31.225Z,5.37
2018-12-18T00:25:31.203Z,5.39
2018-12-18T00:26:31.190Z,5.36
2018-12-18T00:27:31.185Z,5.33
2018-12-18T00:28:31.185Z,5.24
2018-12-18T00:29:31.153Z,5.32
2018-12-18T00:30:31.156Z,5.30
2018-12-18T00:31:31.142Z,5.30
2018-12-18T00:32:31.126Z,5.29
2018-12-18T00:33:31.132Z,5.30
2018-12-18T00:34:31.108Z,5.32
2018-12-18T00:35:31.094Z,5.29
2018-12-18T00:36:31.091Z,5.27
2018-12-18T00:37:31.067Z,5.24
2018-12-18T00:38:31.084Z,5.16
2018-12-18T00:39:31.053Z,5.21
2018-12-18T00:40:31.058Z,5.27
2018-12-18T00:41:31.036Z,5.27
2018-12-18T00:42:31.015Z,5.29
2018-12-18T00:43:31.033Z,5.34
2018-12-18T00:44:31.000Z,5.30
2018-12-18T00:45:30.989Z,5.29
2018-12-18T00:46:30.976Z,5.27
2018-12-18T00:47:30.959Z,5.29
2018-12-18T00:48:30.956Z,5.22
2018-12-18T00:49:30.967Z,5.27
2018-12-18T00:50:30.930Z,5.29
2018-12-18T00:51:30.917Z,5.27
2018-12-18T00:52:30.965Z,5.29
2018-12-18T00:53:30.923Z,5.27
2018-12-18T00:54:30.902Z,5.29
2018-12-18T00:55:30.878Z,5.22
2018-12-18T00:56:30.868Z,5.27
2018-12-18T00:57:30.858Z,5.27
2018-12-18T00:58:30.845Z,5.25
2018-12-18T00:59:30.893Z,5.29
2018-12-18T01:00:30.825Z,5.24
2018-12-18T01:01:30.814Z,5.30
2018-12-18T01:02:30.851Z,5.32
2018-12-18T01:03:30.790Z,5.30
2018-12-18T01:04:30.792Z,5.30
2018-12-18T01:05:30.789Z,5.32
2018-12-18T01:06:30.762Z,5.30
2018-12-18T01:07:30.756Z,5.36
2018-12-18T01:08:30.767Z,5.34
2018-12-18T01:09:30.731Z,5.37
2018-12-18T01:10:30.751Z,5.34
2018-12-18T01:11:30.709Z,5.41
2018-12-18T01:12:30.728Z,5.39
2018-12-18T01:13:30.684Z,5.39
2018-12-18T01:14:30.682Z,5.30
2018-12-18T01:15:30.665Z,5.33
2018-12-18T01:16:30.708Z,5.40
2018-12-18T01:17:30.653Z,5.36
2018-12-18T01:18:30.652Z,5.32
2018-12-18T01:19:30.622Z,5.33
2018-12-18T01:20:30.648Z,5.24
2018-12-18T01:21:30.601Z,5.34
2018-12-18T01:22:30.595Z,5.27
2018-12-18T01:23:30.581Z,5.22
2018-12-18T01:24:30.567Z,5.24
2018-12-18T01:25:30.561Z,5.25
2018-12-18T01:26:30.583Z,5.27
2018-12-18T01:27:30.547Z,5.25
2018-12-18T01:28:30.527Z,5.24
2018-12-18T01:29:30.516Z,5.15
2018-12-18T01:30:30.517Z,5.25
2018-12-18T01:31:30.536Z,5.25
2018-12-18T01:32:30.487Z,5.21
2018-12-18T01:33:30.481Z,5.19
2018-12-18T01:34:30.465Z,5.14
2018-12-18T01:35:30.461Z,5.16
2018-12-18T01:36:30.471Z,5.15
2018-12-18T01:37:30.437Z,5.03
2018-12-18T01:38:30.421Z,5.15
2018-12-18T01:39:30.426Z,5.04
2018-12-18T01:40:30.399Z,5.09
2018-12-18T01:41:30.431Z,5.06
2018-12-18T01:42:30.384Z,5.03
2018-12-18T01:43:30.366Z,5.06
2018-12-18T01:44:30.369Z,5.04
2018-12-18T01:45:30.356Z,5.12
2018-12-18T01:46:30.377Z,5.01
2018-12-18T01:47:30.325Z,5.04
2018-12-18T01:48:30.331Z,5.06
2018-12-18T01:49:30.310Z,5.04
2018-12-18T01:50:30.292Z,5.01
2018-12-18T01:51:30.298Z,5.04
2018-12-18T01:52:30.327Z,5.01
2018-12-18T01:53:30.261Z,4.98
2018-12-18T01:54:30.254Z,4.91
2018-12-18T01:55:30.242Z,4.96
2018-12-18T01:56:30.236Z,4.89
2018-12-18T01:57:30.222Z,4.91
2018-12-18T01:58:30.229Z,4.94
2018-12-18T01:59:30.204Z,4.94
2018-12-18T02:00:30.195Z,4.89
2018-12-18T02:01:30.191Z,4.89
2018-12-18T02:02:30.166Z,4.82
2018-12-18T02:03:30.225Z,4.93
2018-12-18T02:04:30.159Z,4.91
2018-12-18T02:05:30.137Z,4.77
2018-12-18T02:06:30.127Z,4.77
2018-12-18T02:07:30.113Z,4.79
2018-12-18T02:08:30.110Z,4.86
2018-12-18T02:09:30.218Z,4.79
2018-12-18T02:10:30.084Z,4.86
2018-12-18T02:11:30.084Z,4.85
2018-12-18T02:12:30.059Z,4.82
2018-12-18T02:13:30.051Z,4.79
2018-12-18T02:14:30.047Z,4.79
2018-12-18T02:15:30.092Z,4.77
2018-12-18T02:16:30.020Z,4.72
2018-12-18T02:17:30.011Z,4.72
2018-12-18T02:18:29.997Z,4.77
2018-12-18T02:19:29.992Z,4.77
2018-12-18T02:20:29.979Z,4.63
2018-12-18T02:21:29.988Z,4.72
2018-12-18T02:22:29.978Z,4.72
2018-12-18T02:23:29.947Z,4.74
2018-12-18T02:24:29.937Z,4.69
2018-12-18T02:25:29.924Z,4.69
2018-12-18T02:26:29.931Z,4.69
2018-12-18T02:27:29.902Z,4.61
2018-12-18T02:28:29.893Z,4.61
2018-12-18T02:29:29.910Z,4.69
2018-12-18T02:30:29.866Z,4.56
2018-12-18T02:31:29.885Z,4.60
2018-12-18T02:32:29.861Z,4.61
2018-12-18T02:33:29.836Z,4.56
2018-12-18T02:34:29.828Z,4.61
2018-12-18T02:35:29.827Z,4.57
2018-12-18T02:36:29.802Z,4.63
2018-12-18T02:37:29.813Z,4.59
2018-12-18T02:38:29.785Z,4.66
2018-12-18T02:39:29.769Z,4.63
2018-12-18T02:40:29.757Z,4.56
2018-12-18T02:41:29.748Z,4.61
2018-12-18T02:42:29.737Z,4.54
2018-12-18T02:43:29.770Z,4.59
2018-12-18T02:44:29.718Z,4.49
2018-12-18T02:45:29.711Z,4.46
2018-12-18T02:46:29.714Z,4.53
2018-12-18T02:47:29.684Z,4.56
2018-12-18T02:48:29.697Z,4.51
2018-12-18T02:49:29.666Z,4.51
2018-12-18T02:50:29.652Z,4.51
2018-12-18T02:51:29.649Z,4.45
2018-12-18T02:52:29.634Z,4.39
2018-12-18T02:53:29.648Z,4.46
2018-12-18T02:54:29.617Z,4.56
2018-12-18T02:55:29.600Z,4.46
2018-12-18T02:56:29.596Z,4.53
2018-12-18T02:57:29.589Z,4.56
2018-12-18T02:58:29.586Z,4.49
2018-12-18T02:59:29.582Z,4.51
2018-12-18T03:00:29.560Z,4.53
2018-12-18T03:01:29.537Z,4.48
2018-12-18T03:02:29.526Z,4.61
2018-12-18T03:03:29.514Z,4.49
2018-12-18T03:04:29.524Z,4.64
2018-12-18T03:05:29.501Z,4.51
2018-12-18T03:06:29.509Z,4.53
2018-12-18T03:07:29.471Z,4.56
2018-12-18T03:08:29.461Z,4.60
2018-12-18T03:09:29.480Z,4.53
2018-12-18T03:10:29.438Z,4.53
2018-12-18T03:11:29.433Z,4.46
2018-12-18T03:12:29.427Z,4.57
2018-12-18T03:13:29.429Z,4.45
2018-12-18T03:14:29.395Z,4.45
2018-12-18T03:15:29.398Z,4.48
2018-12-18T03:16:29.374Z,4.43
2018-12-18T03:17:29.365Z,4.45
2018-12-18T03:18:29.358Z,4.56
2018-12-18T03:19:29.345Z,4.45
2018-12-18T03:20:29.350Z,4.42
2018-12-18T03:21:29.332Z,4.42
2018-12-18T03:22:29.319Z,4.45
2018-12-18T03:23:29.309Z,4.46
2018-12-18T03:24:29.287Z,4.42
2018-12-18T03:25:29.323Z,4.49
2018-12-18T03:26:29.269Z,4.45
2018-12-18T03:27:29.257Z,4.45
2018-12-18T03:28:29.257Z,4.43
2018-12-18T03:29:29.238Z,4.41
2018-12-18T03:30:29.255Z,4.45
2018-12-18T03:31:29.233Z,4.39
2018-12-18T03:32:29.217Z,4.39
2018-12-18T03:33:29.201Z,4.45
2018-12-18T03:34:29.188Z,4.42
2018-12-18T03:35:29.192Z,4.38
2018-12-18T03:36:29.165Z,4.46
2018-12-18T03:37:29.158Z,4.36
2018-12-18T03:38:29.142Z,4.43
2018-12-18T03:39:29.142Z,4.35
2018-12-18T03:40:29.125Z,4.34
2018-12-18T03:41:29.133Z,4.30
2018-12-18T03:42:29.095Z,4.42
2018-12-18T03:43:29.086Z,4.41
2018-12-18T03:44:29.103Z,4.39
2018-12-18T03:45:29.084Z,4.35
2018-12-18T03:46:29.080Z,4.36
2018-12-18T03:47:29.065Z,4.41
2018-12-18T03:48:29.034Z,4.38
2018-12-18T03:49:29.022Z,4.39
2018-12-18T03:50:29.018Z,4.36
2018-12-18T03:51:29.019Z,4.31
2018-12-18T03:52:29.000Z,4.27
2018-12-18T03:53:28.983Z,4.34
2018-12-18T03:54:28.983Z,4.24
2018-12-18T03:55:28.959Z,4.27
2018-12-18T03:56:28.975Z,4.28
2018-12-18T03:57:28.963Z,4.28
2018-12-18T03:58:28.926Z,4.27
2018-12-18T03:59:28.932Z,4.36
2018-12-18T04:00:28.906Z,4.35
2018-12-18T04:01:28.911Z,4.34
2018-12-18T04:02:28.897Z,4.30
2018-12-18T04:03:28.886Z,4.39
2018-12-18T04:04:35.338Z,4.43
2018-12-18T04:05:29.880Z,4.38
2018-12-18T04:06:28.843Z,4.38
2018-12-18T04:07:28.854Z,4.45
2018-12-18T04:08:28.832Z,4.41
2018-12-18T04:09:28.826Z,4.31
2018-12-18T04:10:28.807Z,4.31
2018-12-18T04:11:28.782Z,4.35
2018-12-18T04:12:28.786Z,4.43
2018-12-18T04:13:28.783Z,4.34
2018-12-18T04:14:28.754Z,4.30
2018-12-18T04:15:28.757Z,4.41
2018-12-18T04:16:28.737Z,4.42
2018-12-18T04:17:28.728Z,4.39
2018-12-18T04:18:28.729Z,4.39
2018-12-18T04:19:28.700Z,4.41
2018-12-18T04:20:28.711Z,4.35
2018-12-18T04:21:28.704Z,4.41
2018-12-18T04:22:28.672Z,4.38
2018-12-18T04:23:28.698Z,4.41
2018-12-18T04:24:28.645Z,4.30
2018-12-18T04:25:28.634Z,4.27
2018-12-18T04:26:28.622Z,4.30
2018-12-18T04:27:28.616Z,4.31
2018-12-18T04:28:28.621Z,4.27
2018-12-18T04:29:28.619Z,4.30
2018-12-18T04:30:28.576Z,4.31
2018-12-18T04:31:28.575Z,4.34
2018-12-18T04:32:28.554Z,4.30
2018-12-18T04:33:28.563Z,4.27
2018-12-18T04:34:28.561Z,4.23
2018-12-18T04:35:28.557Z,4.26
2018-12-18T04:36:28.515Z,4.31
2018-12-18T04:37:28.525Z,4.21
2018-12-18T04:38:28.495Z,4.18
2018-12-18T04:39:28.507Z,4.18
2018-12-18T04:40:28.526Z,4.26
2018-12-18T04:41:28.460Z,4.21
2018-12-18T04:42:28.458Z,4.23
2018-12-18T04:43:28.444Z,4.21
2018-12-18T04:44:28.426Z,4.16
2018-12-18T04:45:28.441Z,4.20
2018-12-18T04:46:28.410Z,4.13
2018-12-18T04:47:28.397Z,4.12
2018-12-18T04:48:28.388Z,4.03
2018-12-18T04:49:28.401Z,4.05
2018-12-18T04:50:28.404Z,4.10
2018-12-18T04:51:28.354Z,4.02
2018-12-18T04:52:28.348Z,4.05
2018-12-18T04:53:28.336Z,4.05
2018-12-18T04:54:28.321Z,4.09
2018-12-18T04:55:28.333Z,4.12
2018-12-18T04:56:28.300Z,4.10
2018-12-18T04:57:28.287Z,4.06
2018-12-18T04:58:28.279Z,4.10
2018-12-18T04:59:28.266Z,4.03
2018-12-18T05:00:28.290Z,4.02
2018-12-18T05:01:28.245Z,4.03
2018-12-18T05:02:28.242Z,3.99
2018-12-18T05:03:28.221Z,3.99
2018-12-18T05:04:28.213Z,3.99
2018-12-18T05:05:28.233Z,4.00
2018-12-18T05:06:28.191Z,3.99
2018-12-18T05:07:28.177Z,3.99
2018-12-18T05:08:28.182Z,3.96
2018-12-18T05:09:28.154Z,4.10
2018-12-18T05:10:28.148Z,3.94
2018-12-18T05:11:28.156Z,3.98
2018-12-18T05:12:28.120Z,3.98
2018-12-18T05:13:28.111Z,3.92
2018-12-18T05:14:28.108Z,3.96
2018-12-18T05:15:28.092Z,3.98
2018-12-18T05:16:28.087Z,4.00
2018-12-18T05:17:28.105Z,3.94
2018-12-18T05:18:28.057Z,3.96
2018-12-18T05:19:28.051Z,3.92
2018-12-18T05:20:28.034Z,3.98
2018-12-18T05:21:28.026Z,3.94
2018-12-18T05:22:28.035Z,3.99
2018-12-18T05:23:28.032Z,3.91
2018-12-18T05:24:28.009Z,3.96
2018-12-18T05:25:28.018Z,4.00
2018-12-18T05:26:27.976Z,3.96
2018-12-18T05:27:27.987Z,3.98
2018-12-18T05:28:27.953Z,3.96
2018-12-18T05:29:27.962Z,3.91
2018-12-18T05:30:27.941Z,3.85
2018-12-18T05:31:27.915Z,3.96
2018-12-18T05:32:27.921Z,3.91
2018-12-18T05:33:27.924Z,3.82
2018-12-18T05:34:27.886Z,3.99
2018-12-18T05:35:27.885Z,3.81
2018-12-18T05:36:27.869Z,3.94
2018-12-18T05:37:27.879Z,3.92
2018-12-18T05:38:27.849Z,3.76
2018-12-18T05:39:27.835Z,3.92
2018-12-18T05:40:27.819Z,3.91
2018-12-18T05:41:27.803Z,3.87
2018-12-18T05:42:27.842Z,3.94
2018-12-18T05:43:28.604Z,3.82
2018-12-18T05:44:27.775Z,3.87
2018-12-18T05:45:27.767Z,3.85
2018-12-18T05:46:27.785Z,3.85
2018-12-18T05:47:27.744Z,3.94
2018-12-18T05:48:27.751Z,3.85
2018-12-18T05:49:27.724Z,3.90
2018-12-18T05:50:27.707Z,3.80
2018-12-18T05:51:27.717Z,3.88
2018-12-18T05:52:27.721Z,3.87
2018-12-18T05:53:27.708Z,3.85
2018-12-18T05:54:27.680Z,3.88
2018-12-18T05:55:27.658Z,3.87
2018-12-18T05:56:27.658Z,3.84
2018-12-18T05:57:27.635Z,3.82
2018-12-18T05:58:27.626Z,3.80
2018-12-18T05:59:27.629Z,3.76
2018-12-18T06:00:27.602Z,3.82
2018-12-18T06:01:27.590Z,3.78
2018-12-18T06:02:27.591Z,3.69
2018-12-18T06:03:27.585Z,3.74
2018-12-18T06:04:27.583Z,3.85
2018-12-18T06:05:27.548Z,3.78
2018-12-18T06:06:27.548Z,3.73
2018-12-18T06:07:27.526Z,3.74
2018-12-18T06:08:27.516Z,3.78
2018-12-18T06:09:27.524Z,3.80
2018-12-18T06:10:27.496Z,3.62
2018-12-18T06:11:27.501Z,3.81
2018-12-18T06:12:27.475Z,3.74
2018-12-18T06:13:27.475Z,3.74
2018-12-18T06:14:27.469Z,3.80
2018-12-18T06:15:27.444Z,3.81
2018-12-18T06:16:27.430Z,3.72
2018-12-18T06:17:27.420Z,3.69
2018-12-18T06:18:27.470Z,3.73
2018-12-18T06:19:27.412Z,3.78
2018-12-18T06:20:27.385Z,3.76
2018-12-18T06:21:27.394Z,3.74
2018-12-18T06:22:27.368Z,3.72
2018-12-18T06:23:27.354Z,3.69
2018-12-18T06:24:27.373Z,3.73
2018-12-18T06:25:27.336Z,3.66
2018-12-18T06:26:27.356Z,3.78
2018-12-18T06:27:27.313Z,3.70
2018-12-18T06:28:27.299Z,3.67
2018-12-18T06:29:27.367Z,3.70
2018-12-18T06:30:27.299Z,3.73
2018-12-18T06:31:27.286Z,3.66
2018-12-18T06:32:27.287Z,3.69
2018-12-18T06:33:27.284Z,3.70
2018-12-18T06:34:27.237Z,3.73
2018-12-18T06:35:27.248Z,3.76
2018-12-18T06:36:27.216Z,3.67
2018-12-18T06:37:27.888Z,3.76
2018-12-18T06:38:27.208Z,3.74
2018-12-18T06:39:27.197Z,3.66
2018-12-18T06:40:27.185Z,3.69
2018-12-18T06:41:27.190Z,3.67
2018-12-18T06:42:27.146Z,3.76
2018-12-18T06:43:27.152Z,3.69
2018-12-18T06:44:27.166Z,3.62
2018-12-18T06:45:27.116Z,3.70
2018-12-18T06:46:27.126Z,3.66
2018-12-18T06:47:27.098Z,3.76
2018-12-18T06:48:27.089Z,3.81
2018-12-18T06:49:27.091Z,3.70
2018-12-18T06:50:27.087Z,3.76
2018-12-18T06:51:27.054Z,3.69
2018-12-18T06:52:27.079Z,3.73
2018-12-18T06:53:27.033Z,3.69
2018-12-18T06:54:27.029Z,3.80
2018-12-18T06:55:27.016Z,3.72
2018-12-18T06:56:26.997Z,3.73
2018-12-18T06:57:27.012Z,3.73
2018-12-18T06:58:26.977Z,3.78
2018-12-18T06:59:26.980Z,3.82
2018-12-18T07:00:27.001Z,3.80
2018-12-18T07:01:27.009Z,3.80
2018-12-18T07:02:26.958Z,3.78
2018-12-18T07:03:26.930Z,3.81
2018-12-18T07:04:26.917Z,3.85
2018-12-18T07:05:26.902Z,3.85
2018-12-18T07:06:26.889Z,3.82
2018-12-18T07:07:26.901Z,3.87
2018-12-18T07:08:26.881Z,3.90
2018-12-18T07:09:26.923Z,3.85
2018-12-18T07:10:26.861Z,3.90
2018-12-18T07:11:26.847Z,3.85
2018-12-18T07:12:26.868Z,3.84
2018-12-18T07:13:26.852Z,3.91
2018-12-18T07:14:26.805Z,3.85
2018-12-18T07:15:26.800Z,3.84
2018-12-18T07:16:26.782Z,3.81
2018-12-18T07:17:26.775Z,3.80
2018-12-18T07:18:26.796Z,3.78
2018-12-18T07:19:26.754Z,3.78
2018-12-18T07:20:26.752Z,3.82
2018-12-18T07:21:26.735Z,3.81
2018-12-18T07:22:26.723Z,3.87
2018-12-18T07:23:26.735Z,3.81
2018-12-18T07:24:26.730Z,3.78
2018-12-18T07:25:26.689Z,3.76
2018-12-18T07:26:26.684Z,3.81
2018-12-18T07:27:26.665Z,3.80
2018-12-18T07:28:26.692Z,3.81
2018-12-18T07:29:26.667Z,3.78
2018-12-18T07:30:26.646Z,3.81
2018-12-18T07:31:26.638Z,3.80
2018-12-18T07:32:26.615Z,3.78
2018-12-18T07:33:26.631Z,3.76
2018-12-18T07:34:26.600Z,3.85
2018-12-18T07:35:26.601Z,3.85
2018-12-18T07:36:26.593Z,3.87
2018-12-18T07:37:26.571Z,3.81
2018-12-18T07:38:26.706Z,3.98
2018-12-18T07:39:26.584Z,3.90
2018-12-18T07:40:27.027Z,3.94
2018-12-18T07:41:26.879Z,3.98
2018-12-18T07:42:26.504Z,4.00
2018-12-18T07:43:26.495Z,3.96
2018-12-18T07:44:26.516Z,4.02
2018-12-18T07:45:26.481Z,3.92
2018-12-18T07:46:26.463Z,4.02
2018-12-18T07:47:26.478Z,4.03
2018-12-18T07:48:26.437Z,4.05
2018-12-18T07:49:26.445Z,4.06
2018-12-18T07:50:26.422Z,4.02
2018-12-18T07:51:26.415Z,4.08
2018-12-18T07:52:26.403Z,4.05
2018-12-18T07:53:26.385Z,4.06
2018-12-18T07:54:26.392Z,4.09
2018-12-18T07:55:26.373Z,4.06
2018-12-18T07:56:26.352Z,4.05
2018-12-18T07:57:26.350Z,4.02
2018-12-18T07:58:26.339Z,4.06
2018-12-18T07:59:26.342Z,4.13
2018-12-18T08:00:26.312Z,4.10
2018-12-18T08:01:26.299Z,4.17
2018-12-18T08:02:26.292Z,4.13
2018-12-18T08:03:26.279Z,4.17
2018-12-18T08:04:26.280Z,4.16
2018-12-18T08:05:29.844Z,4.20
2018-12-18T08:06:26.245Z,4.12
2018-12-18T08:07:26.240Z,4.17
2018-12-18T08:08:26.223Z,4.18
2018-12-18T08:09:26.215Z,4.20
2018-12-18T08:10:26.226Z,4.20
2018-12-18T08:11:26.207Z,4.13
2018-12-18T08:12:26.186Z,4.23
2018-12-18T08:13:26.170Z,4.26
2018-12-18T08:14:26.157Z,4.20
2018-12-18T08:15:26.181Z,4.23
2018-12-18T08:16:26.140Z,4.21
2018-12-18T08:17:26.126Z,4.27
2018-12-18T08:18:26.112Z,4.23
2018-12-18T08:19:26.104Z,4.23
2018-12-18T08:20:35.713Z,4.23
2018-12-18T08:21:33.624Z,4.26
2018-12-18T08:22:33.621Z,4.31
2018-12-18T08:23:33.614Z,4.31
2018-12-18T08:24:33.587Z,4.34
2018-12-18T08:25:26.039Z,4.28
2018-12-18T08:26:35.828Z,4.26
2018-12-18T08:27:33.564Z,4.39
2018-12-18T08:28:33.550Z,4.36
2018-12-18T08:29:33.534Z,4.41
2018-12-18T08:30:25.987Z,4.39
2018-12-18T08:31:25.997Z,4.36
2018-12-18T08:32:33.505Z,4.36
2018-12-18T08:33:33.493Z,4.39
2018-12-18T08:34:25.942Z,4.41
2018-12-18T08:35:25.930Z,4.28
2018-12-18T08:36:25.942Z,4.39
2018-12-18T08:37:25.910Z,4.39
2018-12-18T08:38:25.901Z,4.45
2018-12-18T08:39:25.919Z,4.43
2018-12-18T08:40:25.877Z,4.48
2018-12-18T08:41:25.887Z,4.54
2018-12-18T08:42:25.863Z,4.49
2018-12-18T08:43:25.845Z,4.53
2018-12-18T08:44:25.836Z,4.61
2018-12-18T08:45:25.854Z,4.66
2018-12-18T08:46:25.831Z,4.59
2018-12-18T08:47:25.802Z,4.51
2018-12-18T08:48:25.795Z,4.63
2018-12-18T08:49:25.787Z,4.56
2018-12-18T08:50:25.804Z,4.59
2018-12-18T08:51:25.796Z,4.67
2018-12-18T08:52:25.762Z,4.72
2018-12-18T08:53:25.745Z,4.83
2018-12-18T08:54:25.753Z,4.74
2018-12-18T08:55:25.734Z,4.83
2018-12-18T08:56:25.729Z,4.89
2018-12-18T08:57:25.721Z,4.82
2018-12-18T08:58:25.687Z,4.89
2018-12-18T08:59:25.695Z,4.93
2018-12-18T09:00:25.689Z,4.93
2018-12-18T09:01:25.663Z,4.91
2018-12-18T09:02:25.672Z,5.01
2018-12-18T09:03:25.684Z,5.03
2018-12-18T09:04:25.624Z,5.09
2018-12-18T09:05:25.614Z,5.07
2018-12-18T09:06:25.753Z,5.06
2018-12-18T09:07:25.599Z,5.09
2018-12-18T09:08:25.760Z,5.15
2018-12-18T09:09:25.580Z,5.22
2018-12-18T09:10:25.563Z,5.16
2018-12-18T09:11:25.578Z,5.25
2018-12-18T09:12:25.542Z,5.25
2018-12-18T09:13:25.605Z,5.22
2018-12-18T09:14:25.532Z,5.32
2018-12-18T09:15:25.516Z,5.36
2018-12-18T09:16:25.496Z,5.36
2018-12-18T09:17:25.562Z,5.32
2018-12-18T09:18:25.515Z,5.36
2018-12-18T09:19:25.473Z,5.48
2018-12-18T09:20:25.453Z,5.39
2018-12-18T09:21:25.468Z,5.37
2018-12-18T09:22:25.430Z,5.41
2018-12-18T09:23:25.497Z,5.40
2018-12-18T09:24:25.427Z,5.50
2018-12-18T09:25:25.427Z,5.40
2018-12-18T09:26:25.410Z,5.48
2018-12-18T09:27:25.390Z,5.51
2018-12-18T09:28:25.398Z,5.51
2018-12-18T09:29:25.373Z,5.50
2018-12-18T09:30:25.361Z,5.50
2018-12-18T09:31:25.348Z,5.48
2018-12-18T09:32:25.371Z,5.55
2018-12-18T09:33:25.341Z,5.50
2018-12-18T09:34:25.309Z,5.48
2018-12-18T09:35:25.330Z,5.58
2018-12-18T09:36:25.291Z,5.61
2018-12-18T09:37:25.292Z,5.61
2018-12-18T09:38:25.260Z,5.58
2018-12-18T09:39:25.302Z,5.66
2018-12-18T09:40:25.246Z,5.72
2018-12-18T09:41:25.251Z,5.70
2018-12-18T09:42:25.224Z,5.79
2018-12-18T09:43:25.218Z,5.88
2018-12-18T09:44:25.215Z,5.77
2018-12-18T09:45:25.198Z,5.82
2018-12-18T09:46:25.174Z,5.84
2018-12-18T09:47:25.170Z,5.88
2018-12-18T09:48:25.179Z,5.84
2018-12-18T09:49:25.170Z,5.87
2018-12-18T09:50:25.132Z,5.88
2018-12-18T09:51:25.126Z,5.87
2018-12-18T09:52:25.113Z,5.91
2018-12-18T09:53:25.115Z,5.88
2018-12-18T09:54:25.115Z,5.90
2018-12-18T09:55:25.079Z,5.91
2018-12-18T09:56:25.091Z,5.97
2018-12-18T09:57:25.058Z,5.98
2018-12-18T09:58:25.048Z,6.11
2018-12-18T09:59:25.062Z,6.11
2018-12-18T10:00:25.054Z,6.12
2018-12-18T10:01:25.017Z,6.06
2018-12-18T10:02:25.005Z,6.19
2018-12-18T10:03:25.009Z,6.15
2018-12-18T10:04:25.102Z,6.16
2018-12-18T10:05:25.014Z,6.25
2018-12-18T10:06:24.983Z,6.24
2018-12-18T10:07:24.960Z,6.35
2018-12-18T10:08:24.944Z,6.21
2018-12-18T10:09:25.014Z,6.24
2018-12-18T10:10:24.980Z,6.37
2018-12-18T10:11:24.922Z,6.25
2018-12-18T10:12:24.899Z,6.37
2018-12-18T10:13:24.891Z,6.32
2018-12-18T10:14:24.917Z,6.46
2018-12-18T10:15:24.867Z,6.40
2018-12-18T10:16:24.862Z,6.45
2018-12-18T10:17:24.927Z,6.49
2018-12-18T10:18:24.836Z,6.50
2018-12-18T10:19:24.839Z,6.57
2018-12-18T10:20:24.818Z,6.52
2018-12-18T10:21:24.804Z,6.57
2018-12-18T10:22:24.829Z,6.61
2018-12-18T10:23:24.795Z,6.63
2018-12-18T10:24:24.825Z,6.57
2018-12-18T10:25:24.763Z,6.64
2018-12-18T10:26:24.767Z,6.56
2018-12-18T10:27:24.754Z,6.61
2018-12-18T10:28:24.779Z,6.63
2018-12-18T10:29:24.716Z,6.61
2018-12-18T10:30:24.722Z,6.64
2018-12-18T10:31:24.695Z,6.73
2018-12-18T10:32:24.690Z,6.70
2018-12-18T10:33:24.686Z,6.74
2018-12-18T10:34:24.663Z,6.73
2018-12-18T10:35:24.674Z,6.73
2018-12-18T10:36:24.652Z,6.75
2018-12-18T10:37:24.656Z,6.75
2018-12-18T10:38:24.618Z,6.75
2018-12-18T10:39:24.637Z,6.82
2018-12-18T10:40:24.605Z,6.81
2018-12-18T10:41:24.642Z,6.88
2018-12-18T10:42:24.574Z,6.83
2018-12-18T10:43:24.567Z,6.89
2018-12-18T10:44:24.576Z,7.00
2018-12-18T10:45:24.541Z,6.91
2018-12-18T10:46:24.586Z,6.99
2018-12-18T10:47:24.522Z,7.03
2018-12-18T10:48:24.511Z,7.06
2018-12-18T10:49:24.509Z,7.07
2018-12-18T10:50:24.504Z,7.04
2018-12-18T10:51:24.502Z,7.10
2018-12-18T10:52:24.488Z,7.18
2018-12-18T10:53:24.466Z,7.19
2018-12-18T10:54:24.443Z,7.24
2018-12-18T10:55:24.436Z,7.18
2018-12-18T10:56:24.466Z,7.16
2018-12-18T10:57:24.416Z,7.29
2018-12-18T10:58:24.433Z,7.24
2018-12-18T10:59:24.396Z,7.26
2018-12-18T11:00:24.391Z,7.28
2018-12-18T11:01:24.392Z,7.31
2018-12-18T11:02:24.394Z,7.25
2018-12-18T11:03:24.356Z,7.40
2018-12-18T11:04:24.381Z,7.34
2018-12-18T11:05:24.331Z,7.40
2018-12-18T11:06:24.339Z,7.36
2018-12-18T11:07:24.310Z,7.40
2018-12-18T11:08:24.324Z,7.39
2018-12-18T11:09:24.285Z,7.47
2018-12-18T11:10:24.273Z,7.39
2018-12-18T11:11:24.288Z,7.54
2018-12-18T11:12:24.271Z,7.64
2018-12-18T11:13:24.249Z,7.57
2018-12-18T11:14:24.259Z,7.61
2018-12-18T11:15:24.220Z,7.57
2018-12-18T11:16:24.207Z,7.57
2018-12-18T11:17:24.219Z,7.54
2018-12-18T11:18:24.189Z,7.58
2018-12-18T11:19:24.191Z,7.58
2018-12-18T11:20:24.190Z,7.52
2018-12-18T11:21:24.174Z,7.61
2018-12-18T11:22:24.174Z,7.61
2018-12-18T11:23:24.131Z,7.57
2018-12-18T11:24:24.145Z,7.61
2018-12-18T11:25:24.140Z,7.52
2018-12-18T11:26:24.138Z,7.64
2018-12-18T11:27:24.139Z,7.66
2018-12-18T11:28:24.083Z,7.64
2018-12-18T11:29:24.077Z,7.60
2018-12-18T11:30:24.064Z,7.58
2018-12-18T11:31:24.048Z,7.60
2018-12-18T11:32:24.045Z,7.55
2018-12-18T11:33:24.042Z,7.60
2018-12-18T11:34:24.021Z,7.62
2018-12-18T11:35:24.002Z,7.62
2018-12-18T11:36:23.994Z,7.62
2018-12-18T11:37:24.972Z,7.60
2018-12-18T11:38:23.990Z,7.58
2018-12-18T11:39:23.983Z,7.61
2018-12-18T11:40:23.962Z,7.57
2018-12-18T11:41:23.944Z,7.54
2018-12-18T11:42:23.939Z,7.55
2018-12-18T11:43:23.941Z,7.60
2018-12-18T11:44:23.915Z,7.50
2018-12-18T11:45:23.915Z,7.49
2018-12-18T11:46:23.882Z,7.62
2018-12-18T11:47:23.897Z,7.49
2018-12-18T11:48:23.874Z,7.47
2018-12-18T11:49:23.924Z,7.61
2018-12-18T11:50:23.869Z,7.62
2018-12-18T11:51:23.833Z,7.55
2018-12-18T11:52:23.826Z,7.60
2018-12-18T11:53:23.839Z,7.61
2018-12-18T11:54:23.816Z,7.58
2018-12-18T11:55:23.831Z,7.61
2018-12-18T11:56:23.798Z,7.52
2018-12-18T11:57:23.770Z,7.64
2018-12-18T11:58:23.764Z,7.55
2018-12-18T11:59:23.772Z,7.54
2018-12-18T12:00:23.782Z,7.57
2018-12-18T12:01:23.750Z,7.57
2018-12-18T12:02:23.714Z,7.61
2018-12-18T12:03:23.706Z,7.68
2018-12-18T12:04:23.713Z,7.62
2018-12-18T12:05:23.730Z,7.62
2018-12-18T12:06:23.679Z,7.62
2018-12-18T12:07:23.665Z,7.58
2018-12-18T12:08:23.647Z,7.55
2018-12-18T12:09:23.708Z,7.49
2018-12-18T12:10:23.637Z,7.62
2018-12-18T12:11:23.617Z,7.50
2018-12-18T12:12:23.653Z,7.46
2018-12-18T12:13:23.598Z,7.47
2018-12-18T12:14:23.631Z,7.52
2018-12-18T12:15:23.592Z,7.47
2018-12-18T12:16:23.640Z,7.47
2018-12-18T12:17:23.554Z,7.39
2018-12-18T12:18:23.571Z,7.37
2018-12-18T12:19:23.565Z,7.39
2018-12-18T12:20:23.524Z,7.36
2018-12-18T12:21:23.543Z,7.40
2018-12-18T12:22:23.518Z,7.40
2018-12-18T12:23:23.491Z,7.34
2018-12-18T12:24:23.476Z,7.42
2018-12-18T12:25:23.536Z,7.39
2018-12-18T12:26:23.454Z,7.39
2018-12-18T12:27:23.452Z,7.26
2018-12-18T12:28:23.434Z,7.29
2018-12-18T12:29:23.472Z,7.26
2018-12-18T12:30:23.415Z,7.31
2018-12-18T12:31:23.399Z,7.25
2018-12-18T12:32:23.392Z,7.21
2018-12-18T12:33:23.385Z,7.22
2018-12-18T12:34:23.376Z,7.22
2018-12-18T12:35:23.422Z,7.25
2018-12-18T12:36:29.470Z,7.24
2018-12-18T12:37:24.369Z,7.29
2018-12-18T12:38:23.342Z,7.28
2018-12-18T12:39:23.312Z,7.21
2018-12-18T12:40:23.322Z,7.16
2018-12-18T12:41:23.292Z,7.06
2018-12-18T12:42:23.286Z,7.07
2018-12-18T12:43:23.272Z,7.06
2018-12-18T12:44:23.261Z,7.11
2018-12-18T12:45:23.324Z,7.07
2018-12-18T12:46:23.269Z,7.10
2018-12-18T12:47:23.254Z,7.07
2018-12-18T12:48:23.222Z,7.08
2018-12-18T12:49:23.208Z,7.00
2018-12-18T12:50:23.251Z,6.99
2018-12-18T12:51:23.188Z,6.93
2018-12-18T12:52:23.177Z,7.00
2018-12-18T12:53:23.161Z,6.93
2018-12-18T12:54:23.153Z,6.86
2018-12-18T12:55:23.174Z,6.88
2018-12-18T12:56:23.165Z,6.88
2018-12-18T12:57:23.983Z,6.99
2018-12-18T12:58:23.106Z,6.97
2018-12-18T12:59:23.108Z,6.91
2018-12-18T13:00:23.138Z,6.93
2018-12-18T13:01:23.117Z,6.96
2018-12-18T13:02:23.076Z,6.97
2018-12-18T13:03:23.068Z,6.96
2018-12-18T13:04:23.045Z,6.96
2018-12-18T13:05:23.035Z,6.97
2018-12-18T13:06:23.043Z,6.85
2018-12-18T13:07:23.052Z,6.89
2018-12-18T13:08:23.015Z,6.79
2018-12-18T13:09:22.990Z,6.83
2018-12-18T13:10:22.982Z,6.75
2018-12-18T13:11:22.990Z,6.75
2018-12-18T13:12:22.960Z,6.70
2018-12-18T13:13:22.950Z,6.78
2018-12-18T13:14:22.937Z,6.81
2018-12-18T13:15:22.934Z,6.73
2018-12-18T13:16:22.992Z,6.55
2018-12-18T13:17:22.921Z,6.64
2018-12-18T13:18:22.911Z,6.60